Time;durP1;ratioP1;P1;durP2;ratioP2;P2;SDS_P1;SDS_P2;PMS_P1;PMS_P2;Temp;Humidity;BMP_temperature;BMP_pressure;BME280_temperature;BME280_humidity;BME280_pressure;Samples;Min_cycle;Max_cycle;Signal;HPM_P1;HPM_P2
2023/11/09 00:02:14;;;;;;;4.13;1.40;;;10.10;99.90;;;;;;5059684;28;20031;-83
2023/11/09 00:04:40;;;;;;;3.83;1.80;;;10.10;99.90;;;;;;5060564;28;20112;-83
2023/11/09 00:07:07;;;;;;;2.97;1.10;;;10.10;99.90;;;;;;5059852;28;20021;-83
2023/11/09 00:09:34;;;;;;;3.03;1.30;;;10.20;99.90;;;;;;5060624;28;20035;-83
2023/11/09 00:11:59;;;;;;;4.57;1.80;;;10.10;99.90;;;;;;5060331;28;20711;-83
2023/11/09 00:17:48;;;;;;;4.07;1.50;;;10.10;99.90;;;;;;5228179;22;21585;-78
2023/11/09 00:20:16;;;;;;;2.60;1.23;;;10.20;99.90;;;;;;5062438;22;20110;-78
2023/11/09 00:22:42;;;;;;;3.90;1.60;;;10.20;99.90;;;;;;5045431;28;20100;-80
2023/11/09 00:25:08;;;;;;;2.83;1.40;;;10.20;99.90;;;;;;5049980;28;20037;-77
2023/11/09 00:27:33;;;;;;;2.83;1.30;;;10.10;99.90;;;;;;5055264;28;20020;-78
2023/11/09 00:29:59;;;;;;;2.65;1.40;;;10.10;99.90;;;;;;5057707;28;20025;-79
2023/11/09 00:32:24;;;;;;;4.67;1.37;;;10.10;99.90;;;;;;5050331;28;20488;-78
2023/11/09 06:30:45;;;;;;;15.68;6.40;;;10.30;99.90;;;;;;4345228;26;20123;-78
2023/11/09 06:33:11;;;;;;;16.27;7.05;;;10.20;99.90;;;;;;5032761;28;20056;-78
2023/11/09 06:35:38;;;;;;;17.93;7.60;;;10.20;99.90;;;;;;5034005;28;20107;-78
2023/11/09 06:38:04;;;;;;;17.45;7.35;;;10.10;99.90;;;;;;5034094;28;20025;-78
2023/11/09 06:40:31;;;;;;;20.05;7.78;;;10.10;99.90;;;;;;5033310;28;20076;-78
2023/11/09 06:42:58;;;;;;;15.15;6.00;;;10.10;99.90;;;;;;5034893;28;20018;-78
2023/11/09 06:45:23;;;;;;;17.33;6.30;;;10.10;99.90;;;;;;5033733;28;20022;-78
2023/11/09 06:47:49;;;;;;;18.23;7.00;;;10.10;99.90;;;;;;5034603;28;20476;-78
2023/11/09 06:50:19;;;;;;;15.67;6.13;;;10.10;99.90;;;;;;5034375;28;20033;-77
2023/11/09 06:52:45;;;;;;;17.27;6.87;;;10.00;99.90;;;;;;5034286;28;20089;-78
2023/11/09 06:55:15;;;;;;;22.63;7.07;;;10.00;99.90;;;;;;5034417;28;20037;-78
2023/11/09 06:57:42;;;;;;;22.37;7.60;;;9.90;99.90;;;;;;5032917;28;20396;-78
2023/11/09 07:00:13;;;;;;;19.93;7.37;;;9.90;99.90;;;;;;5034098;28;20033;-78
2023/11/09 07:02:40;;;;;;;20.37;7.20;;;9.90;99.90;;;;;;5034067;28;20028;-78
2023/11/09 07:05:06;;;;;;;18.63;7.67;;;9.90;99.90;;;;;;5033363;28;20033;-78
2023/11/09 07:07:34;;;;;;;20.10;7.80;;;9.80;99.90;;;;;;5032487;28;20037;-78
2023/11/09 07:09:59;;;;;;;21.80;8.75;;;9.80;99.90;;;;;;5033168;28;20381;-78
2023/11/09 07:12:26;;;;;;;23.43;8.50;;;9.90;99.90;;;;;;5028974;28;20040;-78
2023/11/09 07:14:52;;;;;;;26.07;8.93;;;9.80;99.90;;;;;;5031888;28;20123;-78
2023/11/09 07:17:19;;;;;;;21.97;8.63;;;9.90;99.90;;;;;;5033241;28;20489;-78
2023/11/09 07:19:48;;;;;;;20.03;8.70;;;9.90;99.90;;;;;;5031637;28;20037;-78
2023/11/09 07:22:20;;;;;;;18.07;7.87;;;9.90;99.90;;;;;;5043495;28;20040;-78
2023/11/09 07:24:49;;;;;;;28.60;9.93;;;9.90;99.90;;;;;;5052008;28;20388;-78
2023/11/09 07:27:20;;;;;;;21.93;8.20;;;9.90;99.90;;;;;;5051585;28;20052;-78
2023/11/09 07:29:46;;;;;;;23.53;7.93;;;9.90;99.90;;;;;;5051621;28;20045;-78
2023/11/09 07:32:12;;;;;;;20.70;8.13;;;9.90;99.90;;;;;;5037785;28;20040;-78
2023/11/09 07:34:38;;;;;;;21.07;7.70;;;9.90;99.90;;;;;;5030831;28;20021;-77
2023/11/09 07:37:05;;;;;;;17.47;6.70;;;9.90;99.90;;;;;;5033293;28;20477;-78
2023/11/09 07:39:31;;;;;;;21.60;7.37;;;9.90;99.90;;;;;;5033242;28;20021;-78
2023/11/09 07:42:01;;;;;;;21.23;8.00;;;9.90;99.90;;;;;;5033281;28;20037;-78
2023/11/09 07:44:27;;;;;;;16.17;6.40;;;9.90;99.90;;;;;;5032385;28;20029;-78
2023/11/09 07:46:54;;;;;;;16.13;6.00;;;9.90;99.90;;;;;;5032158;28;20029;-78
2023/11/09 07:49:20;;;;;;;20.98;6.70;;;9.90;99.90;;;;;;5031942;28;20039;-78
2023/11/09 07:51:46;;;;;;;16.13;5.80;;;9.90;99.90;;;;;;5031931;28;20047;-78
2023/11/09 07:54:16;;;;;;;17.53;6.10;;;9.90;99.90;;;;;;5032962;28;20528;-78
2023/11/09 07:56:41;;;;;;;18.80;6.47;;;9.90;99.90;;;;;;5031594;28;20052;-78
2023/11/09 07:59:07;;;;;;;22.70;6.68;;;9.90;99.90;;;;;;5033271;28;20417;-78
2023/11/09 08:01:33;;;;;;;22.77;7.22;;;9.90;99.90;;;;;;5032640;28;20021;-78
2023/11/09 08:03:58;;;;;;;24.27;7.77;;;9.90;99.90;;;;;;5033234;28;20021;-78
2023/11/09 08:06:24;;;;;;;25.53;8.80;;;9.90;99.90;;;;;;5031868;28;20024;-78
2023/11/09 08:08:53;;;;;;;26.50;9.37;;;9.90;99.90;;;;;;5032979;28;20025;-78
2023/11/09 08:11:19;;;;;;;22.53;7.90;;;9.90;99.90;;;;;;5033195;28;20026;-78
2023/11/09 08:13:49;;;;;;;26.43;9.70;;;10.00;99.90;;;;;;5031628;28;20028;-78
2023/11/09 08:16:14;;;;;;;30.93;10.63;;;10.00;99.90;;;;;;5032730;28;20100;-77
2023/11/09 08:18:42;;;;;;;31.30;11.73;;;10.00;99.90;;;;;;5033003;28;20100;-78
2023/11/09 08:21:08;;;;;;;26.97;10.47;;;10.00;99.90;;;;;;5032721;28;20093;-78
2023/11/09 08:23:35;;;;;;;32.15;11.43;;;10.10;99.90;;;;;;5032987;28;20105;-78
2023/11/09 08:26:01;;;;;;;29.73;10.63;;;10.20;99.90;;;;;;5033112;28;20024;-79
2023/11/09 08:28:26;;;;;;;32.20;10.95;;;10.20;99.90;;;;;;5031666;28;20096;-78
2023/11/09 08:30:52;;;;;;;32.07;11.83;;;10.20;99.90;;;;;;5033121;28;20046;-78
2023/11/09 08:33:24;;;;;;;34.70;13.07;;;10.20;99.90;;;;;;5032576;28;20358;-77
2023/11/09 08:35:52;;;;;;;33.35;13.13;;;10.20;99.90;;;;;;5031676;28;20072;-78
2023/11/09 08:38:18;;;;;;;34.33;12.43;;;10.20;99.90;;;;;;5032593;28;20026;-78
2023/11/09 08:40:51;;;;;;;35.03;13.75;;;10.20;99.90;;;;;;5031421;28;20022;-77
2023/11/09 08:43:17;;;;;;;36.28;14.15;;;10.20;99.90;;;;;;5032777;28;20090;-78
2023/11/09 08:45:43;;;;;;;34.80;13.68;;;10.20;99.90;;;;;;5033815;28;20057;-78
2023/11/09 08:48:10;;;;;;;43.00;15.40;;;10.20;99.90;;;;;;5036482;28;20018;-78
2023/11/09 08:50:36;;;;;;;36.80;14.63;;;10.20;99.90;;;;;;5035421;28;20018;-77
2023/11/09 08:53:03;;;;;;;46.55;15.18;;;10.20;99.90;;;;;;5036945;28;20113;-78
2023/11/09 08:55:29;;;;;;;39.95;14.15;;;10.20;99.90;;;;;;5036528;28;20493;-78
2023/11/09 08:57:58;;;;;;;37.90;14.93;;;10.30;99.90;;;;;;5036520;28;20493;-78
2023/11/09 09:00:24;;;;;;;40.60;15.07;;;10.30;99.90;;;;;;5035141;28;20388;-78
2023/11/09 09:02:51;;;;;;;38.42;15.02;;;10.30;99.90;;;;;;5036507;28;20021;-78
2023/11/09 09:05:18;;;;;;;34.87;14.23;;;10.30;99.90;;;;;;5035121;28;20033;-79
2023/11/09 09:07:45;;;;;;;38.50;15.82;;;10.40;99.90;;;;;;5036306;28;20022;-80
2023/11/09 09:10:12;;;;;;;48.83;17.45;;;10.40;99.90;;;;;;5034921;28;20017;-78
2023/11/09 09:12:38;;;;;;;45.70;17.67;;;10.40;99.90;;;;;;5035000;28;20028;-79
2023/11/09 09:15:12;;;;;;;45.90;18.08;;;10.40;99.90;;;;;;5034867;28;20018;-78
2023/11/09 09:17:42;;;;;;;;;;;10.40;99.90;;;;;;5035059;28;20026;-78
2023/11/09 09:20:12;;;;;;;43.97;17.58;;;10.50;99.90;;;;;;5051433;28;19909;-78
2023/11/09 09:22:42;;;;;;;44.97;18.58;;;10.50;99.90;;;;;;5036182;28;20041;-78
2023/11/09 09:25:10;;;;;;;36.95;15.93;;;10.60;99.90;;;;;;5036061;28;20021;-77
2023/11/09 09:27:43;;;;;;;43.83;17.83;;;10.70;99.90;;;;;;5036027;28;20080;-78
2023/11/09 09:30:10;;;;;;;39.83;17.90;;;10.70;99.90;;;;;;5035500;28;20096;-78
2023/11/09 09:32:47;;;;;;;38.85;17.08;;;10.80;99.90;;;;;;5034643;28;20022;-78
2023/11/09 09:35:14;;;;;;;39.50;18.60;;;10.90;99.90;;;;;;5034735;28;20057;-79
2023/11/09 09:37:41;;;;;;;44.45;19.80;;;10.90;99.90;;;;;;5035649;28;20030;-78
2023/11/09 09:40:15;;;;;;;42.13;18.75;;;11.00;99.90;;;;;;5035402;28;20032;-78
2023/11/09 09:42:46;;;;;;;44.40;20.55;;;11.10;99.90;;;;;;5035536;28;20489;-78
2023/11/09 09:45:30;;;;;;;43.97;19.15;;;11.20;99.90;;;;;;5034207;28;20392;-79
2023/11/09 09:47:59;;;;;;;43.15;19.27;;;11.40;99.90;;;;;;5035597;28;20030;-78
2023/11/09 09:50:26;;;;;;;41.42;19.58;;;11.60;99.90;;;;;;5035357;28;20025;-78
2023/11/09 09:52:56;;;;;;;34.28;16.42;;;11.80;99.90;;;;;;5035517;28;20029;-79
2023/11/09 09:55:24;;;;;;;32.85;17.02;;;12.10;99.90;;;;;;5035428;28;20369;-77
2023/11/09 09:57:54;;;;;;;24.55;13.95;;;12.30;99.90;;;;;;5032876;28;20033;-79
2023/11/09 10:00:25;;;;;;;28.80;14.55;;;12.70;99.90;;;;;;5035506;28;20033;-76
2023/11/09 10:02:56;;;;;;;23.00;11.82;;;12.90;99.90;;;;;;5035477;28;20156;-78
2023/11/09 10:05:27;;;;;;;16.77;10.10;;;13.40;99.90;;;;;;5035203;28;20030;-79
2023/11/09 10:08:15;;;;;;;14.18;8.05;;;13.90;99.90;;;;;;5034077;28;20551;-78
2023/11/09 10:10:49;;;;;;;14.57;7.88;;;14.50;99.90;;;;;;5035267;28;20026;-80
2023/11/09 10:13:18;;;;;;;14.95;9.18;;;14.70;99.90;;;;;;5035343;28;20029;-77
2023/11/09 10:15:45;;;;;;;20.05;9.93;;;14.80;99.90;;;;;;5034477;28;20488;-81
2023/11/09 10:18:12;;;;;;;22.08;11.95;;;14.80;99.90;;;;;;5033525;28;20026;-80
2023/11/09 10:20:55;;;;;;;22.58;11.65;;;14.70;99.90;;;;;;5035089;28;20041;-79
2023/11/09 10:23:21;;;;;;;22.13;12.60;;;14.50;99.90;;;;;;5035005;28;20032;-79
2023/11/09 10:25:47;;;;;;;26.10;13.65;;;14.40;99.90;;;;;;5034989;28;20033;-78
2023/11/09 10:28:13;;;;;;;27.35;14.45;;;14.30;99.90;;;;;;5034796;28;20104;-78
2023/11/09 10:30:46;;;;;;;21.67;12.68;;;14.20;99.90;;;;;;5033125;28;20382;-80
2023/11/09 10:33:17;;;;;;;23.58;13.43;;;14.00;99.90;;;;;;5034765;28;20028;-79
2023/11/09 10:35:44;;;;;;;23.35;12.68;;;13.90;99.90;;;;;;5034887;28;20026;-79
2023/11/09 10:38:12;;;;;;;18.75;11.48;;;13.90;99.90;;;;;;5033216;28;20025;-77
2023/11/09 10:40:42;;;;;;;20.63;11.40;;;14.00;99.90;;;;;;5034720;28;20029;-79
2023/11/09 10:43:08;;;;;;;24.45;10.00;;;14.10;99.90;;;;;;5033216;28;20477;-79
2023/11/09 10:45:38;;;;;;;19.67;9.57;;;14.20;99.90;;;;;;5034607;28;20044;-79
2023/11/09 10:48:07;;;;;;;15.88;8.85;;;14.40;99.90;;;;;;5033002;28;20013;-78
2023/11/09 10:50:35;;;;;;;19.45;8.45;;;14.60;99.90;;;;;;5033244;28;20504;-77
2023/11/09 10:53:04;;;;;;;16.08;7.32;;;14.80;99.90;;;;;;5033482;28;20501;-78
2023/11/09 10:55:30;;;;;;;16.73;7.07;;;15.00;99.90;;;;;;5034665;28;20017;-78
2023/11/09 10:58:05;;;;;;;16.20;6.40;;;15.20;99.90;;;;;;5032621;28;20034;-78
2023/11/09 11:00:32;;;;;;;14.35;6.63;;;15.50;99.90;;;;;;5034320;28;20045;-78
2023/11/09 11:03:08;;;;;;;14.25;5.32;;;15.80;99.90;;;;;;5034503;28;20021;-79
2023/11/09 11:05:40;;;;;;;18.15;6.22;;;15.90;99.90;;;;;;5034251;28;20029;-78
2023/11/09 11:08:10;;;;;;;14.20;5.25;;;16.00;99.90;;;;;;5032734;28;20021;-79
2023/11/09 11:10:43;;;;;;;15.73;4.88;;;16.30;99.90;;;;;;5033656;28;20036;-79
2023/11/09 11:13:10;;;;;;;12.48;4.00;;;16.50;99.90;;;;;;5034367;28;20029;-78
2023/11/09 11:16:05;;;;;;;11.60;3.40;;;16.70;99.90;;;;;;5034004;28;20117;-78
2023/11/09 11:18:30;;;;;;;11.35;3.63;;;16.90;99.90;;;;;;5033839;28;20060;-77
2023/11/09 11:21:08;;;;;;;11.90;4.03;;;16.90;99.90;;;;;;5033573;28;20362;-78
2023/11/09 11:24:09;;;;;;;10.00;3.00;;;16.80;99.90;;;;;;5033838;28;20038;-78
2023/11/09 11:26:50;;;;;;;12.75;2.97;;;16.80;99.90;;;;;;5033429;28;20366;-77
2023/11/09 11:29:17;;;;;;;10.25;2.80;;;16.90;99.90;;;;;;5032015;28;20028;-79
2023/11/09 11:31:46;;;;;;;12.25;2.97;;;17.10;99.90;;;;;;5033873;28;20041;-78
2023/11/09 11:34:15;;;;;;;14.02;2.78;;;17.10;98.50;;;;;;5033732;28;20480;-79
2023/11/09 11:36:47;;;;;;;12.82;2.70;;;17.20;98.40;;;;;;5032373;28;20026;-79
2023/11/09 11:39:36;;;;;;;11.70;2.65;;;17.50;98.50;;;;;;5033502;28;20037;-78
2023/11/09 11:42:25;;;;;;;14.02;2.67;;;17.70;95.80;;;;;;5032399;28;20025;-78
2023/11/09 11:45:02;;;;;;;12.10;2.67;;;17.90;96.40;;;;;;5033588;28;20044;-78
2023/11/09 11:47:29;;;;;;;8.98;1.60;;;18.10;95.00;;;;;;5032189;28;20507;-79
2023/11/09 11:49:56;;;;;;;11.00;2.15;;;18.00;94.40;;;;;;5033076;28;20048;-79
2023/11/09 11:52:25;;;;;;;10.95;2.15;;;18.20;92.90;;;;;;5033143;28;20045;-77
2023/11/09 11:54:51;;;;;;;13.05;2.60;;;18.50;94.10;;;;;;5033072;28;20366;-78
2023/11/09 11:57:18;;;;;;;11.30;2.05;;;19.00;94.80;;;;;;5033270;28;20037;-79
2023/11/09 12:00:00;;;;;;;9.88;1.77;;;19.30;90.20;;;;;;5032518;28;20495;-77
2023/11/09 12:02:26;;;;;;;7.47;1.80;;;19.40;84.30;;;;;;5033315;28;20029;-78
2023/11/09 12:04:56;;;;;;;9.27;1.98;;;19.30;79.30;;;;;;5032063;28;20029;-78
2023/11/09 12:07:25;;;;;;;9.63;1.80;;;19.00;78.90;;;;;;5033341;28;20083;-78
2023/11/09 12:09:52;;;;;;;7.05;1.65;;;18.90;79.40;;;;;;5032924;28;20546;-78
2023/11/09 12:12:17;;;;;;;7.53;1.35;;;18.80;80.40;;;;;;5033276;28;20037;-77
2023/11/09 12:14:46;;;;;;;7.28;1.58;;;18.70;79.40;;;;;;5033177;28;20387;-77
2023/11/09 12:17:13;;;;;;;8.65;1.92;;;18.50;75.40;;;;;;5032701;28;20021;-77
2023/11/09 12:19:41;;;;;;;9.65;1.40;;;18.30;77.30;;;;;;5031423;28;20097;-78
2023/11/09 12:22:07;;;;;;;7.65;1.40;;;18.00;71.50;;;;;;5032791;28;20071;-79
2023/11/09 12:24:35;;;;;;;14.15;1.80;;;17.60;71.00;;;;;;5032681;28;20053;-79
2023/11/09 12:27:10;;;;;;;5.63;1.35;;;17.20;72.20;;;;;;5032905;28;20026;-80
2023/11/09 12:29:41;;;;;;;6.47;1.35;;;16.90;72.90;;;;;;5032540;28;20077;-78
2023/11/09 12:32:08;;;;;;;7.18;1.30;;;16.70;73.70;;;;;;5032740;28;20036;-78
2023/11/09 12:34:40;;;;;;;7.00;1.45;;;16.40;74.90;;;;;;5031440;28;20022;-79
2023/11/09 12:37:13;;;;;;;9.10;1.77;;;16.30;73.90;;;;;;5032469;28;20029;-78
2023/11/09 12:39:40;;;;;;;8.25;1.50;;;16.20;75.40;;;;;;5031383;28;20025;-78
2023/11/09 12:42:06;;;;;;;8.65;1.52;;;16.30;74.10;;;;;;5031345;28;20050;-80
2023/11/09 12:44:35;;;;;;;10.65;1.77;;;16.20;72.70;;;;;;5033083;28;20061;-79
2023/11/09 12:47:07;;;;;;;9.18;1.38;;;16.10;71.40;;;;;;5032794;28;20125;-79
2023/11/09 12:49:33;;;;;;;10.70;1.98;;;16.00;71.80;;;;;;5031708;28;20251;-78
2023/11/09 12:52:02;;;;;;;9.90;1.90;;;16.00;71.40;;;;;;5032199;28;20095;-78
2023/11/09 12:54:28;;;;;;;10.13;1.85;;;15.90;72.20;;;;;;5032681;28;20024;-80
2023/11/09 12:56:56;;;;;;;11.00;1.52;;;15.80;71.50;;;;;;5031219;28;20030;-78
2023/11/09 12:59:28;;;;;;;13.02;1.58;;;15.60;72.10;;;;;;5031295;28;20017;-79
2023/11/09 13:02:03;;;;;;;11.80;1.60;;;15.50;71.50;;;;;;5032966;28;20026;-79
2023/11/09 13:04:40;;;;;;;7.97;1.38;;;15.50;71.80;;;;;;5032825;28;20465;-78
2023/11/09 13:07:10;;;;;;;7.47;1.45;;;15.50;72.00;;;;;;5032244;28;20030;-79
2023/11/09 13:09:38;;;;;;;12.52;1.50;;;15.50;72.60;;;;;;5032454;28;20218;-79
2023/11/09 13:17:33;;;;;;;8.38;1.63;;;15.20;72.80;;;;;;5032181;28;20393;-77
2023/11/09 13:20:00;;;;;;;15.63;1.48;;;15.10;73.00;;;;;;5032327;28;20100;-78
2023/11/09 13:22:28;;;;;;;7.40;1.48;;;15.00;73.90;;;;;;5032046;28;20057;-78
2023/11/09 13:24:54;;;;;;;6.03;1.35;;;14.90;74.70;;;;;;5030741;28;20037;-78
2023/11/09 13:27:24;;;;;;;5.38;1.20;;;14.90;75.10;;;;;;5032524;28;20472;-79
2023/11/09 13:29:53;;;;;;;16.17;1.38;;;14.80;75.60;;;;;;5030535;28;20041;-79
2023/11/09 13:32:26;;;;;;;11.10;1.08;;;14.80;76.20;;;;;;5034113;28;20033;-80
2023/11/09 13:35:23;;;;;;;10.40;1.50;;;14.80;76.30;;;;;;5034410;28;20025;-80
2023/11/09 13:37:51;;;;;;;11.52;1.85;;;14.80;76.60;;;;;;5035535;28;20037;-79
2023/11/09 13:42:44;;;;;;;9.45;1.10;;;14.70;76.70;;;;;;5035887;28;20300;-79
2023/11/09 13:47:55;;;;;;;6.88;1.10;;;14.50;77.90;;;;;;5035720;28;20120;-79
2023/11/09 13:50:25;;;;;;;7.65;1.00;;;14.40;78.40;;;;;;5035168;28;20083;-79
2023/11/09 13:52:51;;;;;;;9.23;1.77;;;14.40;78.80;;;;;;5035104;28;20029;-80
2023/11/09 13:58:23;;;;;;;13.35;1.92;;;14.10;79.20;;;;;;5025040;28;20046;-80
2023/11/09 14:00:48;;;;;;;10.98;2.08;;;13.90;80.00;;;;;;5035651;28;20028;-79
2023/11/09 14:03:17;;;;;;;13.60;1.85;;;13.90;80.40;;;;;;5034219;28;20025;-78
2023/11/09 14:05:43;;;;;;;11.80;1.75;;;13.80;81.00;;;;;;5033740;28;20461;-79
2023/11/09 14:08:18;;;;;;;9.30;2.03;;;13.70;81.60;;;;;;5033741;28;20030;-78
2023/11/09 14:10:47;;;;;;;10.70;1.63;;;13.70;82.00;;;;;;5035424;28;20032;-80
2023/11/09 14:13:14;;;;;;;11.23;3.05;;;13.70;82.30;;;;;;5035313;28;20030;-80
2023/11/09 14:15:49;;;;;;;11.45;2.17;;;13.70;82.50;;;;;;5035208;28;20176;-78
2023/11/09 14:21:05;;;;;;;9.80;1.65;;;13.60;82.70;;;;;;5034949;28;20025;-77
2023/11/09 14:23:31;;;;;;;10.25;2.08;;;13.50;83.10;;;;;;5033910;28;20079;-80
2023/11/09 14:25:57;;;;;;;16.85;1.90;;;13.50;83.60;;;;;;5034919;28;20059;-77
2023/11/09 14:28:24;;;;;;;11.70;1.85;;;13.50;84.00;;;;;;5034855;28;20034;-80
2023/11/09 14:30:51;;;;;;;9.82;1.35;;;13.50;84.30;;;;;;5033436;28;20045;-78
2023/11/09 14:33:21;;;;;;;10.27;1.42;;;13.60;84.50;;;;;;5033367;28;20028;-79
2023/11/09 14:35:47;;;;;;;13.32;1.83;;;13.60;84.10;;;;;;5033490;28;20022;-78
2023/11/09 14:38:13;;;;;;;7.18;1.40;;;13.70;84.30;;;;;;5033397;28;20440;-80
2023/11/09 14:40:44;;;;;;;13.07;1.98;;;13.70;84.20;;;;;;5034563;28;20013;-81
2023/11/09 14:43:13;;;;;;;19.05;2.33;;;13.80;84.20;;;;;;5034733;28;20076;-79
2023/11/09 14:45:45;;;;;;;9.93;1.45;;;13.80;84.40;;;;;;5034343;28;20045;-79
2023/11/09 14:48:15;;;;;;;13.65;1.77;;;13.80;84.10;;;;;;5034407;28;20096;-80
2023/11/09 14:50:42;;;;;;;9.90;1.83;;;13.70;84.30;;;;;;5034491;28;20117;-78
2023/11/09 14:55:36;;;;;;;11.02;1.63;;;13.60;84.10;;;;;;5034420;28;20108;-80
2023/11/09 14:58:14;;;;;;;10.82;2.03;;;13.50;84.50;;;;;;5034133;28;20030;-79
2023/11/09 15:00:44;;;;;;;9.77;1.45;;;13.40;84.80;;;;;;5034358;28;20025;-78
2023/11/09 15:03:18;;;;;;;13.00;2.05;;;13.30;85.00;;;;;;5032875;28;20095;-79
2023/11/09 15:05:53;;;;;;;;;;;13.30;85.20;;;;;;5034689;28;20029;-81
2023/11/09 15:08:19;;;;;;;11.15;1.60;;;13.20;85.00;;;;;;5034198;28;20319;-80
2023/11/09 15:10:46;;;;;;;7.18;1.25;;;13.10;85.40;;;;;;5034299;28;20025;-80
2023/11/09 15:13:12;;;;;;;16.90;2.08;;;13.10;85.90;;;;;;5032658;28;20488;-80
2023/11/09 15:15:38;;;;;;;9.55;1.70;;;13.00;85.80;;;;;;5032839;28;20018;-80
2023/11/09 15:18:05;;;;;;;16.10;1.75;;;13.00;85.90;;;;;;5034287;28;20033;-81
2023/11/09 15:20:32;;;;;;;11.70;1.85;;;13.00;86.20;;;;;;5033727;28;20030;-81
2023/11/09 15:23:02;;;;;;;12.02;1.92;;;13.00;86.40;;;;;;5032717;28;20034;-79
2023/11/09 15:25:31;;;;;;;13.27;2.10;;;12.90;86.30;;;;;;5034072;28;20029;-79
2023/11/09 15:28:01;;;;;;;12.55;2.25;;;12.90;86.60;;;;;;5033946;28;20021;-78
2023/11/09 15:30:30;;;;;;;10.40;2.40;;;12.80;86.70;;;;;;5033739;28;20077;-79
2023/11/09 15:32:57;;;;;;;13.23;1.75;;;12.80;86.80;;;;;;5033361;28;20427;-79
2023/11/09 15:35:26;;;;;;;13.80;2.33;;;12.70;87.10;;;;;;5033671;28;20060;-80
2023/11/09 15:37:54;;;;;;;16.83;1.98;;;12.70;87.10;;;;;;5033529;28;20029;-80
2023/11/09 15:40:20;;;;;;;12.00;1.83;;;12.70;87.80;;;;;;5032592;28;20033;-80
2023/11/09 15:42:50;;;;;;;12.40;1.77;;;12.60;87.20;;;;;;5033372;28;20021;-80
2023/11/09 15:45:18;;;;;;;11.02;1.70;;;12.60;87.50;;;;;;5033330;28;20362;-79
2023/11/09 15:47:44;;;;;;;9.60;1.88;;;12.50;87.30;;;;;;5033270;28;20083;-79
2023/11/09 15:50:16;;;;;;;11.57;1.60;;;12.50;87.60;;;;;;5032243;28;20022;-80
2023/11/09 15:52:42;;;;;;;10.55;1.83;;;12.50;87.90;;;;;;5032246;28;20030;-79
2023/11/09 15:55:08;;;;;;;16.50;2.33;;;12.50;88.20;;;;;;5030923;28;20366;-78
2023/11/09 15:57:37;;;;;;;11.02;2.30;;;12.50;88.40;;;;;;5033263;28;20036;-79
2023/11/09 16:00:11;;;;;;;15.32;1.85;;;12.40;88.70;;;;;;5032975;28;20578;-79
2023/11/09 16:02:38;;;;;;;8.07;1.30;;;12.40;88.40;;;;;;5033217;28;20021;-80
2023/11/09 16:05:06;;;;;;;11.95;1.90;;;12.30;88.70;;;;;;5031514;28;20025;-79
2023/11/09 16:07:31;;;;;;;15.70;2.20;;;12.30;89.00;;;;;;5033341;28;20052;-79
2023/11/09 16:09:59;;;;;;;17.92;1.83;;;12.20;89.00;;;;;;5021771;28;20022;-80
2023/11/09 16:12:26;;;;;;;12.15;1.13;;;12.30;89.00;;;;;;5013775;28;20030;-80
2023/11/09 16:14:52;;;;;;;12.95;1.95;;;12.20;89.10;;;;;;5032033;28;20048;-79
2023/11/09 16:17:19;;;;;;;13.05;2.00;;;12.20;89.20;;;;;;5032590;28;20032;-79
2023/11/09 16:19:44;;;;;;;10.15;2.17;;;12.20;89.40;;;;;;5032929;28;20028;-80
2023/11/09 16:22:12;;;;;;;11.82;2.10;;;12.20;89.40;;;;;;5032976;28;20381;-80
2023/11/09 16:24:42;;;;;;;13.82;2.28;;;12.10;89.60;;;;;;5032134;28;20534;-79
2023/11/09 16:27:08;;;;;;;8.52;1.73;;;12.10;89.80;;;;;;5032282;28;20469;-80
2023/11/09 16:29:35;;;;;;;10.52;2.17;;;12.10;90.00;;;;;;5026520;28;20037;-80
2023/11/09 16:32:01;;;;;;;16.83;2.33;;;12.10;90.00;;;;;;5030924;28;20017;-79
2023/11/09 16:34:27;;;;;;;14.15;1.52;;;12.00;90.00;;;;;;5032808;28;20539;-79
2023/11/09 16:36:53;;;;;;;12.55;2.22;;;12.00;90.20;;;;;;5045339;28;20021;-78
2023/11/09 16:39:19;;;;;;;9.27;1.38;;;12.00;90.20;;;;;;5032285;28;20060;-78
2023/11/09 16:41:46;;;;;;;13.52;1.60;;;11.90;90.30;;;;;;5032028;28;20026;-80
2023/11/09 16:44:11;;;;;;;10.23;1.77;;;12.00;90.40;;;;;;5032245;28;20033;-78
2023/11/09 16:46:39;;;;;;;11.15;1.80;;;11.90;90.40;;;;;;5032588;28;20017;-79
2023/11/09 16:49:06;;;;;;;8.43;1.45;;;11.90;90.40;;;;;;5032295;28;20381;-78
2023/11/09 16:51:32;;;;;;;13.65;2.47;;;11.90;90.40;;;;;;5047403;28;20029;-79
2023/11/09 16:53:58;;;;;;;10.20;1.60;;;11.80;90.60;;;;;;5032249;28;20043;-78
2023/11/09 16:56:24;;;;;;;12.85;1.52;;;11.80;90.90;;;;;;5030966;28;20480;-76
2023/11/09 16:58:49;;;;;;;5.68;1.00;;;11.70;91.50;;;;;;5032214;28;20037;-82
2023/11/09 17:01:18;;;;;;;6.10;0.68;;;11.60;92.80;;;;;;5047640;28;20432;-82
2023/11/09 17:03:44;;;;;;;4.18;0.32;;;11.20;92.70;;;;;;5047888;28;20021;-80
2023/11/09 17:06:10;;;;;;;3.28;0.30;;;10.70;93.40;;;;;;5047847;28;20052;-80
2023/11/09 17:08:37;;;;;;;1.03;0.23;;;10.40;93.90;;;;;;5034733;28;20385;-84
2023/11/09 17:11:03;;;;;;;1.93;0.30;;;10.00;94.60;;;;;;5038919;28;20386;-84
2023/11/09 17:13:29;;;;;;;3.03;0.20;;;9.70;95.80;;;;;;5034924;28;20029;-85
2023/11/09 17:15:55;;;;;;;1.50;0.30;;;9.30;96.40;;;;;;5036311;28;20067;-81
2023/11/09 17:18:21;;;;;;;1.00;0.20;;;9.00;97.30;;;;;;5035604;28;20476;-80
2023/11/09 17:20:46;;;;;;;1.70;0.20;;;8.80;98.20;;;;;;5035633;28;20079;-80
2023/11/09 17:23:12;;;;;;;1.60;0.27;;;8.70;99.10;;;;;;5035195;28;20060;-82
2023/11/09 17:25:38;;;;;;;1.37;0.20;;;8.60;99.80;;;;;;5035759;28;20072;-82
2023/11/09 17:28:04;;;;;;;0.40;0.20;;;8.50;99.90;;;;;;5035325;28;20385;-81
2023/11/09 17:30:30;;;;;;;0.37;0.17;;;8.40;99.90;;;;;;5035521;28;20045;-79
2023/11/09 17:32:56;;;;;;;2.77;0.30;;;8.40;99.90;;;;;;5034135;28;20526;-81
2023/11/09 17:35:25;;;;;;;0.30;0.20;;;8.30;99.90;;;;;;5035234;28;20131;-80
2023/11/09 17:37:52;;;;;;;2.60;0.30;;;8.30;99.90;;;;;;5033815;28;20488;-79
2023/11/09 17:40:19;;;;;;;4.90;0.30;;;8.20;99.90;;;;;;5035403;28;20037;-79
2023/11/09 17:42:45;;;;;;;4.03;0.40;;;8.20;99.90;;;;;;5035115;28;20037;-81
2023/11/09 17:45:11;;;;;;;5.80;0.40;;;8.20;99.90;;;;;;5031067;28;20017;-79
2023/11/09 17:47:37;;;;;;;2.37;0.43;;;8.20;99.90;;;;;;5039790;28;20069;-80
2023/11/09 17:50:08;;;;;;;1.53;0.50;;;8.00;99.90;;;;;;5029162;28;20053;-80
2023/11/09 17:52:36;;;;;;;1.73;0.40;;;8.10;99.90;;;;;;5034168;28;20076;-78
2023/11/09 17:55:02;;;;;;;0.90;0.37;;;8.10;99.90;;;;;;5034894;28;20040;-79
2023/11/09 17:57:28;;;;;;;1.27;0.43;;;8.10;99.90;;;;;;5035145;28;20025;-79
2023/11/09 17:59:54;;;;;;;3.23;0.60;;;8.00;99.90;;;;;;5050407;28;20021;-78
2023/11/09 18:02:21;;;;;;;2.77;0.47;;;8.00;99.90;;;;;;5035200;28;20030;-78
2023/11/09 18:04:46;;;;;;;1.00;0.23;;;8.00;99.90;;;;;;5033524;28;20017;-78
2023/11/09 18:07:13;;;;;;;2.70;0.40;;;8.00;99.90;;;;;;5033685;28;20091;-80
2023/11/09 18:09:40;;;;;;;2.17;0.30;;;8.00;99.90;;;;;;5034789;28;20545;-79
2023/11/09 18:12:07;;;;;;;3.47;0.50;;;8.00;99.90;;;;;;5034864;28;20112;-78
2023/11/09 18:14:34;;;;;;;0.70;0.30;;;8.00;99.90;;;;;;5034974;28;20065;-79
2023/11/09 18:17:02;;;;;;;0.73;0.40;;;8.00;99.90;;;;;;5034471;28;20082;-78
2023/11/09 18:19:28;;;;;;;1.30;0.30;;;8.00;99.90;;;;;;5023245;28;20511;-80
2023/11/09 18:21:55;;;;;;;2.53;0.50;;;8.00;99.90;;;;;;5018123;28;20121;-80
2023/11/09 18:24:22;;;;;;;1.13;0.33;;;8.00;99.90;;;;;;5033520;28;20026;-79
2023/11/09 18:26:47;;;;;;;2.37;0.53;;;8.00;99.90;;;;;;5033057;28;20040;-78
2023/11/09 18:29:13;;;;;;;1.20;0.33;;;8.00;99.90;;;;;;5033317;28;20156;-79
2023/11/09 18:31:39;;;;;;;1.60;0.40;;;8.00;99.90;;;;;;5034538;28;20033;-78
2023/11/09 18:34:05;;;;;;;1.80;0.30;;;8.00;99.90;;;;;;5033918;28;20063;-78
2023/11/09 18:36:30;;;;;;;1.87;0.30;;;8.00;99.90;;;;;;5034525;28;20032;-79
2023/11/09 18:38:57;;;;;;;2.80;0.70;;;8.00;99.90;;;;;;5049842;28;20022;-80
2023/11/09 18:41:26;;;;;;;3.47;0.40;;;8.00;99.90;;;;;;5034199;28;20490;-79
2023/11/09 18:43:54;;;;;;;1.30;0.50;;;8.00;99.90;;;;;;5034097;28;20030;-81
2023/11/09 18:46:19;;;;;;;4.03;0.50;;;8.00;99.90;;;;;;5049667;28;20017;-79
2023/11/09 18:48:45;;;;;;;1.13;0.40;;;8.00;99.90;;;;;;5034028;28;20615;-81
2023/11/09 18:51:11;;;;;;;2.30;0.50;;;8.00;99.90;;;;;;5034515;28;20067;-80
2023/11/09 18:53:37;;;;;;;2.13;0.33;;;7.90;99.90;;;;;;5034961;28;20108;-80
2023/11/09 18:56:03;;;;;;;2.97;0.60;;;8.00;99.90;;;;;;5032624;28;20025;-80
2023/11/09 18:58:28;;;;;;;1.33;0.40;;;7.90;99.90;;;;;;5035176;28;20032;-79
2023/11/09 19:00:54;;;;;;;1.70;0.43;;;8.00;99.90;;;;;;5034164;28;20018;-81
2023/11/09 19:03:23;;;;;;;1.73;0.47;;;7.90;99.90;;;;;;5032622;28;20052;-78
2023/11/09 19:05:49;;;;;;;3.57;0.53;;;7.90;99.90;;;;;;5033868;28;20033;-79